createdAt,value
2019-03-25T00:01:22.163Z,5.58
2019-03-25T00:03:54.887Z,5.19
2019-03-25T00:06:27.565Z,5.65
2019-03-25T00:09:05.300Z,5.20
2019-03-25T00:11:35.686Z,5.62
2019-03-25T00:14:08.369Z,5.20
2019-03-25T00:16:40.954Z,5.61
2019-03-25T00:19:13.077Z,5.20
2019-03-25T00:21:45.799Z,5.58
2019-03-25T00:24:18.365Z,5.19
2019-03-25T00:26:50.535Z,5.61
2019-03-25T00:29:23.113Z,5.19
2019-03-25T00:31:55.691Z,5.64
2019-03-25T00:34:28.170Z,5.22
2019-03-25T00:37:00.698Z,5.54
2019-03-25T00:39:33.226Z,5.30
2019-03-25T00:42:05.799Z,5.58
2019-03-25T00:44:38.376Z,5.33
2019-03-25T00:47:11.611Z,5.64
2019-03-25T00:49:44.044Z,5.26
2019-03-25T00:52:16.619Z,5.61
2019-03-25T00:54:50.403Z,5.26
2019-03-25T00:57:23.105Z,5.57
2019-03-25T00:59:55.678Z,5.33
2019-03-25T01:02:28.249Z,5.60
2019-03-25T01:05:01.026Z,5.34
2019-03-25T01:07:33.714Z,5.57
2019-03-25T01:10:09.150Z,5.33
2019-03-25T01:12:41.728Z,5.50
2019-03-25T01:15:14.309Z,5.55
2019-03-25T01:17:46.467Z,5.45
2019-03-25T01:20:18.966Z,5.58
2019-03-25T01:22:51.526Z,5.45
2019-03-25T01:25:24.006Z,5.61
2019-03-25T01:27:56.577Z,5.40
2019-03-25T01:30:29.159Z,5.69
2019-03-25T01:33:01.731Z,5.43
2019-03-25T01:35:34.316Z,5.65
2019-03-25T01:38:06.890Z,5.38
2019-03-25T01:40:39.463Z,5.72
2019-03-25T01:43:12.037Z,5.38
2019-03-25T01:45:45.535Z,5.69
2019-03-25T01:48:18.119Z,5.34
2019-03-25T01:50:50.693Z,5.68
2019-03-25T01:53:23.376Z,5.34
2019-03-25T01:55:55.838Z,5.69
2019-03-25T01:58:28.421Z,5.31
2019-03-25T02:01:01.001Z,5.74
2019-03-25T02:03:33.579Z,5.37
2019-03-25T02:06:06.158Z,5.72
2019-03-25T02:08:38.735Z,5.45
2019-03-25T02:11:11.415Z,5.60
2019-03-25T02:13:43.991Z,5.43
2019-03-25T02:16:16.553Z,5.64
2019-03-25T02:18:49.142Z,5.45
2019-03-25T02:21:22.023Z,5.60
2019-03-25T02:23:54.602Z,5.51
2019-03-25T02:26:27.181Z,5.47
2019-03-25T02:28:59.762Z,5.58
2019-03-25T02:31:32.228Z,5.38
2019-03-25T02:34:04.801Z,5.60
2019-03-25T02:36:36.938Z,5.27
2019-03-25T02:39:09.446Z,5.52
2019-03-25T02:41:42.026Z,5.48
2019-03-25T02:44:14.592Z,5.51
2019-03-25T02:46:47.189Z,5.55
2019-03-25T02:49:21.305Z,5.44
2019-03-25T02:51:53.873Z,5.65
2019-03-25T02:54:26.452Z,5.44
2019-03-25T02:56:58.913Z,5.64
2019-03-25T02:59:31.494Z,5.36
2019-03-25T03:02:04.067Z,5.69
2019-03-25T03:04:36.646Z,5.28
2019-03-25T03:07:10.151Z,5.69
2019-03-25T03:09:42.797Z,5.18
2019-03-25T03:12:15.295Z,5.67
2019-03-25T03:14:47.880Z,5.22
2019-03-25T03:17:20.472Z,5.57
2019-03-25T03:19:55.240Z,5.45
2019-03-25T03:22:27.309Z,5.54
2019-03-25T03:24:59.855Z,5.52
2019-03-25T03:27:32.414Z,5.51
2019-03-25T03:30:06.149Z,5.55
2019-03-25T03:32:38.688Z,5.45
2019-03-25T03:35:11.376Z,5.68
2019-03-25T03:37:43.938Z,5.38
2019-03-25T03:40:16.614Z,5.71
2019-03-25T03:42:49.198Z,5.28
2019-03-25T03:45:21.761Z,5.75
2019-03-25T03:47:54.350Z,5.26
2019-03-25T03:50:28.467Z,5.72
2019-03-25T03:53:01.037Z,5.22
2019-03-25T03:55:34.118Z,5.69
2019-03-25T03:58:06.688Z,5.19
2019-03-25T04:00:39.272Z,5.57
2019-03-25T04:03:12.771Z,5.34
2019-03-25T04:05:44.907Z,5.57
2019-03-25T04:08:17.419Z,5.43
2019-03-25T04:10:49.989Z,5.60
2019-03-25T04:13:22.565Z,5.48
2019-03-25T04:15:55.152Z,5.47
2019-03-25T04:18:27.822Z,5.64
2019-03-25T04:21:00.411Z,5.47
2019-03-25T04:23:32.880Z,5.65
2019-03-25T04:26:05.460Z,5.45
2019-03-25T04:28:37.991Z,5.68
2019-03-25T04:31:10.713Z,5.34
2019-03-25T04:33:43.295Z,5.69
2019-03-25T04:36:15.862Z,5.28
2019-03-25T04:38:48.030Z,5.71
2019-03-25T04:41:20.598Z,5.22
2019-03-25T04:43:54.548Z,5.68
2019-03-25T04:46:26.888Z,5.19
2019-03-25T04:48:59.466Z,5.64
2019-03-25T04:51:32.042Z,5.20
2019-03-25T04:54:04.613Z,5.58
2019-03-25T04:56:39.937Z,5.28
2019-03-25T04:59:11.409Z,5.58
2019-03-25T05:01:43.898Z,5.31
2019-03-25T05:04:16.451Z,5.60
2019-03-25T05:06:48.569Z,5.30
2019-03-25T05:09:22.231Z,5.57
2019-03-25T05:11:54.697Z,5.26
2019-03-25T05:14:27.285Z,5.60
2019-03-25T05:16:59.799Z,5.24
2019-03-25T05:19:32.336Z,5.58
2019-03-25T05:22:04.905Z,5.24
2019-03-25T05:24:37.475Z,5.55
2019-03-25T05:27:10.063Z,5.24
2019-03-25T05:29:42.639Z,5.58
2019-03-25T05:32:15.101Z,5.23
2019-03-25T05:34:47.678Z,5.64
2019-03-25T05:37:20.268Z,5.28
2019-03-25T05:39:54.060Z,5.60
2019-03-25T05:42:26.539Z,5.37
2019-03-25T05:44:59.118Z,5.51
2019-03-25T05:47:31.906Z,5.37
2019-03-25T05:50:05.185Z,5.50
2019-03-25T05:52:37.769Z,5.40
2019-03-25T05:55:10.454Z,5.51
2019-03-25T05:57:43.025Z,5.50
2019-03-25T06:00:17.040Z,5.23
2019-03-25T06:02:49.696Z,5.48
2019-03-25T06:05:22.301Z,5.26
2019-03-25T06:07:54.873Z,5.40
2019-03-25T06:10:27.456Z,5.26
2019-03-25T06:13:00.021Z,6.70
2019-03-25T06:15:32.604Z,10.05
2019-03-25T06:18:05.185Z,9.69
2019-03-25T06:20:37.747Z,8.65
2019-03-25T06:23:11.352Z,7.92
2019-03-25T06:25:43.995Z,7.40
2019-03-25T06:28:16.571Z,7.12
2019-03-25T06:30:49.190Z,6.87
2019-03-25T06:33:21.761Z,6.66
2019-03-25T06:35:54.346Z,6.45
2019-03-25T06:38:26.914Z,6.27
2019-03-25T06:40:59.501Z,6.14
2019-03-25T06:43:32.073Z,6.03
2019-03-25T06:46:04.644Z,5.92
2019-03-25T06:48:38.160Z,5.81
2019-03-25T06:51:10.834Z,7.74
2019-03-25T06:53:43.007Z,9.85
2019-03-25T06:56:15.566Z,9.06
2019-03-25T06:58:48.152Z,8.19
2019-03-25T07:01:20.613Z,7.70
2019-03-25T07:03:53.194Z,7.33
2019-03-25T07:06:25.539Z,7.08
2019-03-25T07:08:58.149Z,6.89
2019-03-25T07:11:30.730Z,6.70
2019-03-25T07:14:03.618Z,6.57
2019-03-25T07:16:36.189Z,6.45
2019-03-25T07:19:08.864Z,6.31
2019-03-25T07:21:41.471Z,6.18
2019-03-25T07:24:14.123Z,6.25
2019-03-25T07:26:46.698Z,9.26
2019-03-25T07:29:21.118Z,9.93
2019-03-25T07:31:53.696Z,9.02
2019-03-25T07:34:26.265Z,8.32
2019-03-25T07:36:58.846Z,7.90
2019-03-25T07:39:31.269Z,7.60
2019-03-25T07:42:03.791Z,7.38
2019-03-25T07:44:36.376Z,7.22
2019-03-25T07:47:08.952Z,7.04
2019-03-25T07:49:41.521Z,6.96
2019-03-25T07:52:14.004Z,6.91
2019-03-25T07:54:46.577Z,6.87
2019-03-25T07:57:19.174Z,6.87
2019-03-25T07:59:51.725Z,6.86
2019-03-25T08:02:24.416Z,6.80
2019-03-25T08:04:57.102Z,6.78
2019-03-25T08:07:29.673Z,6.79
2019-03-25T08:10:02.683Z,6.79
2019-03-25T08:12:35.436Z,8.76
2019-03-25T08:15:09.764Z,9.72
2019-03-25T08:17:42.332Z,9.17
2019-03-25T08:20:16.226Z,8.67
2019-03-25T08:22:48.704Z,8.33
2019-03-25T08:25:21.289Z,8.13
2019-03-25T08:28:00.041Z,8.01
2019-03-25T08:30:27.700Z,7.91
2019-03-25T08:33:00.247Z,7.82
2019-03-25T08:35:33.944Z,7.78
2019-03-25T08:38:06.167Z,7.77
2019-03-25T08:40:38.794Z,7.81
2019-03-25T08:43:11.374Z,7.82
2019-03-25T08:45:43.949Z,7.88
2019-03-25T08:48:16.399Z,7.91
2019-03-25T08:50:48.999Z,7.95
2019-03-25T08:53:21.567Z,7.95
2019-03-25T08:55:54.159Z,7.97
2019-03-25T08:58:26.733Z,8.06
2019-03-25T09:00:59.313Z,8.19
2019-03-25T09:03:31.874Z,8.36
2019-03-25T09:06:04.047Z,8.44
2019-03-25T09:08:36.527Z,8.52
2019-03-25T09:11:09.162Z,8.62
2019-03-25T09:13:41.681Z,8.72
2019-03-25T09:16:14.308Z,8.84
2019-03-25T09:18:47.243Z,8.93
2019-03-25T09:21:19.823Z,9.04
2019-03-25T09:23:52.290Z,9.17
2019-03-25T09:26:24.920Z,9.30
2019-03-25T09:28:57.449Z,9.33
2019-03-25T09:31:36.848Z,9.37
2019-03-25T09:34:04.541Z,9.41
2019-03-25T09:36:37.125Z,9.45
2019-03-25T09:39:10.109Z,9.51
2019-03-25T09:41:42.690Z,9.61
2019-03-25T09:44:15.259Z,9.66
2019-03-25T09:46:47.943Z,9.79
2019-03-25T09:49:20.523Z,9.90
2019-03-25T09:51:54.219Z,10.04
2019-03-25T09:54:26.819Z,10.11
2019-03-25T09:56:59.378Z,10.25
2019-03-25T09:59:31.955Z,10.36
2019-03-25T10:02:04.524Z,10.49
2019-03-25T10:04:38.134Z,10.60
2019-03-25T10:07:15.277Z,10.63
2019-03-25T10:09:47.886Z,10.67
2019-03-25T10:12:20.469Z,10.69
2019-03-25T10:14:52.604Z,10.69
2019-03-25T10:17:25.217Z,10.70
2019-03-25T10:19:58.865Z,10.69
2019-03-25T10:22:31.594Z,10.74
2019-03-25T10:25:04.690Z,10.76
2019-03-25T10:27:37.733Z,10.73
2019-03-25T10:30:16.176Z,10.71
2019-03-25T10:32:48.756Z,10.64
2019-03-25T10:35:22.364Z,10.59
2019-03-25T10:37:54.942Z,10.59
2019-03-25T10:40:27.507Z,10.59
2019-03-25T10:43:00.498Z,10.53
2019-03-25T10:45:33.071Z,10.53
2019-03-25T10:48:05.651Z,10.60
2019-03-25T10:50:38.231Z,10.63
2019-03-25T10:53:10.879Z,10.59
2019-03-25T10:55:43.393Z,10.52
2019-03-25T10:58:15.557Z,10.40
2019-03-25T11:00:48.644Z,10.27
2019-03-25T11:03:21.213Z,10.11
2019-03-25T11:05:53.797Z,9.92
2019-03-25T11:08:26.379Z,9.74
2019-03-25T11:10:58.945Z,9.56
2019-03-25T11:13:31.522Z,9.38
2019-03-25T11:16:04.408Z,9.21
2019-03-25T11:18:38.218Z,9.06
2019-03-25T11:21:10.795Z,8.92
2019-03-25T11:23:43.370Z,8.74
2019-03-25T11:26:15.940Z,8.60
2019-03-25T11:28:48.518Z,8.43
2019-03-25T11:31:20.985Z,8.32
2019-03-25T11:33:55.105Z,8.16
2019-03-25T11:36:27.733Z,8.02
2019-03-25T11:38:59.890Z,7.87
2019-03-25T11:41:32.434Z,7.71
2019-03-25T11:44:05.413Z,7.58
2019-03-25T11:46:37.527Z,7.45
2019-03-25T11:49:10.049Z,7.29
2019-03-25T11:51:42.524Z,7.70
2019-03-25T11:54:15.112Z,10.52
2019-03-25T11:56:47.681Z,10.05
2019-03-25T11:59:20.266Z,9.11
2019-03-25T12:01:52.840Z,8.40
2019-03-25T12:04:25.407Z,7.87
2019-03-25T12:06:58.506Z,9.56
2019-03-25T12:09:31.085Z,11.16
2019-03-25T12:12:03.551Z,10.05
2019-03-25T12:14:36.129Z,9.11
2019-03-25T12:17:08.709Z,8.41
2019-03-25T12:19:41.289Z,7.91
2019-03-25T12:22:14.781Z,7.95
2019-03-25T12:24:47.663Z,10.90
2019-03-25T12:27:20.582Z,10.86
2019-03-25T12:29:53.337Z,9.73
2019-03-25T12:32:25.915Z,9.00
2019-03-25T12:34:58.492Z,8.41
2019-03-25T12:37:32.493Z,10.28
2019-03-25T12:40:07.882Z,11.61
2019-03-25T12:42:40.926Z,10.45
2019-03-25T12:45:13.791Z,9.61
2019-03-25T12:47:45.929Z,8.96
2019-03-25T12:50:18.554Z,8.50
2019-03-25T12:52:51.133Z,9.83
2019-03-25T12:55:23.634Z,10.79
2019-03-25T12:57:55.762Z,9.83
2019-03-25T13:00:40.842Z,9.09
2019-03-25T13:03:13.310Z,8.54
2019-03-25T13:05:45.887Z,10.69
2019-03-25T13:08:18.473Z,10.57
2019-03-25T13:10:52.577Z,9.62
2019-03-25T13:13:25.157Z,8.98
2019-03-25T13:15:57.733Z,8.50
2019-03-25T13:18:30.316Z,10.31
2019-03-25T13:21:02.883Z,13.17
2019-03-25T13:23:35.368Z,12.27
2019-03-25T13:26:07.540Z,11.14
2019-03-25T13:28:39.998Z,10.17
2019-03-25T13:31:12.148Z,9.56
2019-03-25T13:33:44.678Z,9.00
2019-03-25T13:36:17.229Z,8.52
2019-03-25T13:38:50.829Z,8.17
2019-03-25T13:41:23.407Z,10.18
2019-03-25T13:43:55.987Z,12.05
2019-03-25T13:46:28.623Z,10.83
2019-03-25T13:49:01.137Z,9.87
2019-03-25T13:51:33.702Z,9.24
2019-03-25T13:54:07.088Z,8.67
2019-03-25T13:56:39.794Z,10.01
2019-03-25T13:59:12.359Z,12.31
2019-03-25T14:01:44.953Z,11.15
2019-03-25T14:04:17.409Z,10.07
2019-03-25T14:06:50.200Z,9.39
2019-03-25T14:09:22.772Z,8.88
2019-03-25T14:11:56.028Z,8.48
2019-03-25T14:14:28.168Z,11.02
2019-03-25T14:17:00.811Z,13.28
2019-03-25T14:19:33.394Z,12.10
2019-03-25T14:22:05.968Z,10.97
2019-03-25T14:24:38.535Z,10.22
2019-03-25T14:27:10.658Z,9.62
2019-03-25T14:29:43.177Z,9.16
2019-03-25T14:32:15.531Z,8.82
2019-03-25T14:34:48.126Z,9.66
2019-03-25T14:37:20.758Z,12.80
2019-03-25T14:39:53.388Z,12.48
2019-03-25T14:42:25.966Z,11.33
2019-03-25T14:44:58.537Z,10.50
2019-03-25T14:47:31.009Z,9.92
2019-03-25T14:50:03.591Z,9.46
2019-03-25T14:52:36.178Z,9.10
2019-03-25T14:55:09.354Z,8.78
2019-03-25T14:57:41.833Z,9.14
2019-03-25T15:00:24.712Z,12.45
2019-03-25T15:02:49.350Z,12.76
2019-03-25T15:05:21.910Z,11.18
2019-03-25T15:07:54.390Z,10.07
2019-03-25T15:10:29.783Z,9.30
2019-03-25T15:13:02.461Z,8.61
2019-03-25T15:15:34.994Z,8.02
2019-03-25T15:18:15.229Z,8.69
2019-03-25T15:20:41.586Z,11.93
2019-03-25T15:23:14.155Z,11.81
2019-03-25T15:25:46.835Z,10.49
2019-03-25T15:28:19.823Z,9.48
2019-03-25T15:30:52.398Z,8.72
2019-03-25T15:33:24.765Z,8.17
2019-03-25T15:35:57.341Z,9.70
2019-03-25T15:38:29.715Z,12.87
2019-03-25T15:41:02.294Z,12.62
2019-03-25T15:43:34.876Z,11.26
2019-03-25T15:46:07.451Z,10.47
2019-03-25T15:48:40.076Z,9.92
2019-03-25T15:51:13.837Z,9.48
2019-03-25T15:53:46.401Z,9.20
2019-03-25T15:56:18.978Z,10.69
2019-03-25T15:58:51.559Z,12.90
2019-03-25T16:01:25.053Z,11.81
2019-03-25T16:03:57.627Z,10.99
2019-03-25T16:06:30.208Z,10.31
2019-03-25T16:09:02.791Z,9.73
2019-03-25T16:11:35.678Z,9.27
2019-03-25T16:14:08.138Z,10.01
2019-03-25T16:16:40.726Z,12.84
2019-03-25T16:19:13.301Z,12.33
2019-03-25T16:21:45.885Z,11.15
2019-03-25T16:24:18.462Z,10.36
2019-03-25T16:26:51.035Z,9.77
2019-03-25T16:29:23.598Z,9.24
2019-03-25T16:31:56.187Z,9.13
2019-03-25T16:34:28.772Z,11.99
2019-03-25T16:37:02.777Z,12.10
2019-03-25T16:39:35.455Z,11.01
2019-03-25T16:42:08.032Z,10.10
2019-03-25T16:44:40.595Z,9.39
2019-03-25T16:47:13.177Z,9.03
2019-03-25T16:49:45.556Z,11.63
2019-03-25T16:52:18.126Z,11.85
2019-03-25T16:54:50.598Z,10.64
2019-03-25T16:57:23.170Z,9.77
2019-03-25T16:59:57.288Z,9.09
2019-03-25T17:02:29.865Z,9.30
2019-03-25T17:05:02.347Z,12.17
2019-03-25T17:07:35.220Z,11.71
2019-03-25T17:10:09.342Z,10.55
2019-03-25T17:12:41.503Z,9.63
2019-03-25T17:15:14.689Z,8.99
2019-03-25T17:17:47.971Z,8.50
2019-03-25T17:20:20.476Z,10.39
2019-03-25T17:22:53.048Z,13.11
2019-03-25T17:25:25.616Z,12.20
2019-03-25T17:27:58.198Z,10.94
2019-03-25T17:30:31.686Z,9.90
2019-03-25T17:33:04.276Z,9.21
2019-03-25T17:35:36.742Z,8.65
2019-03-25T17:38:09.383Z,10.64
2019-03-25T17:40:41.890Z,11.63
2019-03-25T17:43:14.473Z,10.50
2019-03-25T17:45:46.906Z,9.55
2019-03-25T17:48:19.530Z,8.91
2019-03-25T17:50:52.962Z,8.91
2019-03-25T17:53:25.323Z,11.74
2019-03-25T17:55:57.980Z,11.25
2019-03-25T17:58:30.553Z,10.17
2019-03-25T18:01:06.714Z,9.26
2019-03-25T18:03:38.864Z,8.64
2019-03-25T18:06:11.459Z,9.16
2019-03-25T18:08:44.030Z,12.15
2019-03-25T18:11:16.616Z,11.84
2019-03-25T18:13:49.181Z,10.62
2019-03-25T18:16:21.766Z,9.65
2019-03-25T18:18:54.441Z,9.03
2019-03-25T18:21:27.179Z,8.51
2019-03-25T18:24:01.734Z,10.07
2019-03-25T18:26:37.800Z,13.14
2019-03-25T18:29:10.376Z,12.33
2019-03-25T18:31:43.985Z,10.99
2019-03-25T18:34:16.660Z,10.04
2019-03-25T18:36:51.179Z,9.34
2019-03-25T18:39:23.760Z,8.86
2019-03-25T18:41:56.384Z,8.43
2019-03-25T18:44:29.013Z,8.86
2019-03-25T18:47:01.613Z,11.95
2019-03-25T18:49:34.172Z,11.93
2019-03-25T18:52:06.754Z,10.70
2019-03-25T18:54:40.751Z,9.73
2019-03-25T18:57:13.214Z,9.02
2019-03-25T18:59:47.655Z,8.50
2019-03-25T19:02:21.642Z,8.55
2019-03-25T19:04:56.826Z,11.68
2019-03-25T19:07:29.263Z,11.92
2019-03-25T19:10:03.081Z,10.53
2019-03-25T19:12:35.996Z,9.56
2019-03-25T19:15:09.258Z,8.86
2019-03-25T19:17:41.832Z,8.30
2019-03-25T19:20:14.415Z,9.86
2019-03-25T19:22:46.880Z,12.89
2019-03-25T19:25:19.458Z,12.22
2019-03-25T19:27:52.035Z,10.86
2019-03-25T19:30:24.657Z,9.92
2019-03-25T19:32:56.731Z,9.20
2019-03-25T19:35:30.146Z,8.60
2019-03-25T19:38:02.819Z,8.26
2019-03-25T19:40:34.961Z,11.08
2019-03-25T19:43:07.196Z,12.96
2019-03-25T19:45:40.091Z,11.58
2019-03-25T19:48:12.647Z,10.32
2019-03-25T19:50:45.249Z,9.42
2019-03-25T19:53:19.651Z,8.76
2019-03-25T19:55:52.435Z,8.26
2019-03-25T19:58:28.456Z,10.73
2019-03-25T20:01:02.707Z,11.50
2019-03-25T20:03:35.292Z,10.27
2019-03-25T20:06:09.034Z,9.27
2019-03-25T20:08:45.257Z,8.55
2019-03-25T20:11:18.483Z,7.95
2019-03-25T20:13:51.022Z,9.45
2019-03-25T20:16:23.602Z,12.51
2019-03-25T20:18:56.133Z,11.86
2019-03-25T20:21:28.805Z,10.52
2019-03-25T20:24:02.444Z,9.49
2019-03-25T20:26:36.537Z,8.71
2019-03-25T20:29:09.916Z,8.15
2019-03-25T20:31:45.814Z,9.51
2019-03-25T20:34:20.041Z,12.68
2019-03-25T20:36:55.594Z,12.06
2019-03-25T20:39:31.629Z,10.67
2019-03-25T20:42:06.733Z,9.66
2019-03-25T20:44:40.511Z,8.85
2019-03-25T20:47:16.381Z,8.22
2019-03-25T20:49:52.867Z,9.19
2019-03-25T20:52:25.473Z,12.34
2019-03-25T20:54:59.782Z,11.64
2019-03-25T20:57:34.684Z,10.20
2019-03-25T21:00:12.624Z,9.17
2019-03-25T21:02:48.685Z,8.39
2019-03-25T21:05:24.155Z,9.23
2019-03-25T21:07:58.825Z,12.27
2019-03-25T21:10:41.072Z,11.77
2019-03-25T21:13:17.932Z,10.24
2019-03-25T21:15:53.581Z,9.20
2019-03-25T21:18:27.993Z,8.50
2019-03-25T21:21:02.971Z,7.98
2019-03-25T21:23:36.673Z,10.39
2019-03-25T21:26:12.249Z,11.25
2019-03-25T21:28:52.573Z,9.94
2019-03-25T21:31:27.249Z,8.92
2019-03-25T21:34:00.842Z,8.16
2019-03-25T21:36:33.569Z,8.41
2019-03-25T21:39:08.528Z,11.46
2019-03-25T21:41:41.556Z,11.40
2019-03-25T21:44:17.177Z,9.97
2019-03-25T21:46:52.970Z,8.93
2019-03-25T21:49:25.778Z,8.15
2019-03-25T21:51:58.227Z,8.32
2019-03-25T21:54:30.961Z,11.19
2019-03-25T21:57:03.711Z,10.47
2019-03-25T21:59:36.291Z,9.19
2019-03-25T22:02:16.425Z,8.25
2019-03-25T22:04:52.269Z,7.94
2019-03-25T22:07:25.778Z,10.67
2019-03-25T22:10:00.072Z,10.53
2019-03-25T22:12:33.188Z,9.19
2019-03-25T22:15:09.438Z,8.25
2019-03-25T22:17:43.010Z,7.49
2019-03-25T22:20:18.156Z,8.39
2019-03-25T22:22:51.678Z,11.39
2019-03-25T22:25:24.289Z,10.86
2019-03-25T22:27:57.047Z,9.44
2019-03-25T22:30:33.424Z,8.36
2019-03-25T22:33:07.332Z,7.57
2019-03-25T22:35:40.426Z,7.84
2019-03-25T22:38:15.334Z,10.84
2019-03-25T22:40:49.183Z,10.50
2019-03-25T22:43:21.848Z,9.10
2019-03-25T22:45:56.954Z,8.02
2019-03-25T22:48:31.318Z,7.32
2019-03-25T22:51:04.951Z,7.98
2019-03-25T22:53:38.169Z,11.18
2019-03-25T22:56:10.843Z,11.11
2019-03-25T22:58:43.417Z,9.65
2019-03-25T23:01:16.193Z,8.45
2019-03-25T23:03:48.883Z,7.60
2019-03-25T23:06:21.345Z,6.90
2019-03-25T23:08:53.931Z,8.69
2019-03-25T23:11:26.406Z,10.39
2019-03-25T23:13:58.977Z,9.16
2019-03-25T23:16:31.656Z,7.99
2019-03-25T23:19:04.242Z,7.15
2019-03-25T23:21:37.441Z,6.53
2019-03-25T23:24:10.208Z,8.78
2019-03-25T23:26:42.354Z,11.18
2019-03-25T23:29:14.960Z,9.92
2019-03-25T23:31:47.533Z,8.54
2019-03-25T23:34:19.711Z,7.56
2019-03-25T23:36:52.384Z,6.80
2019-03-25T23:39:25.268Z,6.35
2019-03-25T23:41:58.144Z,9.06
2019-03-25T23:44:30.722Z,11.11
2019-03-25T23:47:03.297Z,9.77
2019-03-25T23:49:36.291Z,8.41
2019-03-25T23:52:08.961Z,7.46
2019-03-25T23:54:41.749Z,6.70
2019-03-25T23:57:14.534Z,6.09
2019-03-25T23:59:47.316Z,5.57
